EST,Max TemperatureF,Mean TemperatureF,Min TemperatureF,Max Dew PointF,MeanDew PointF,Min DewpointF,Max Humidity, Mean Humidity, Min Humidity, Max Sea Level PressureIn, Mean Sea Level PressureIn, Min Sea Level PressureIn, Max VisibilityMiles, Mean VisibilityMiles, Min VisibilityMiles, Max Wind SpeedMPH, Mean Wind SpeedMPH, Max Gust SpeedMPH,PrecipitationIn, CloudCover, Events, WindDirDegrees
2013-11-1,72,63,54,58,49,40,93,66,39,29.79,29.71,29.53,10,9,2,28,6,47,0.38,5,Rain,241
2013-11-2,59,52,44,42,38,32,83,63,43,30.09,29.89,29.76,10,10,10,14,5,23,T,3,Rain,271
2013-11-3,53,46,38,38,35,33,85,68,50,30.38,30.26,30.09,10,10,10,7,2,10,0.00,5,,318
2013-11-4,62,50,38,36,32,31,76,56,36,30.43,30.38,30.35,10,10,10,8,2,12,0.00,0,,137
2013-11-5,66,56,46,36,32,29,58,43,27,30.44,30.37,30.30,10,10,10,7,3,12,0.00,0,,146
2013-11-6,73,63,53,56,44,29,56,47,38,30.29,30.12,30.00,10,10,7,16,6,28,T,6,Rain,182
2013-11-7,60,48,35,57,42,26,93,69,45,30.27,30.12,29.98,10,8,2,14,6,24,0.40,6,Rain,299
2013-11-8,52,42,31,29,24,20,85,58,30,30.40,30.32,30.27,10,10,10,10,3,14,0.00,0,,248
2013-11-9,62,48,34,30,25,22,69,46,23,30.28,30.21,30.14,10,10,10,13,5,24,0.00,0,,202
2013-11-10,56,48,39,37,28,21,70,49,27,30.34,30.27,30.19,10,10,10,16,6,23,0.00,0,,290
2013-11-11,64,48,31,28,22,16,72,44,15,30.34,30.22,30.11,10,10,10,9,3,14,T,2,,216
2013-11-12,55,42,29,39,26,15,92,58,24,30.62,30.38,30.11,10,7,0,14,6,23,0.17,7,Fog-Rain-Snow,9
2013-11-13,40,31,21,23,18,16,84,62,40,30.66,30.58,30.45,10,10,10,7,3,10,0.00,1,,235
2013-11-14,56,41,26,22,17,13,75,47,19,30.45,30.36,30.25,10,10,10,10,5,19,0.00,0,,201
2013-11-15,56,48,39,45,30,15,93,63,33,30.25,30.20,30.14,10,10,10,10,3,16,0.07,4,Rain,179
2013-11-16,65,55,44,53,49,45,93,80,67,30.19,30.12,30.03,10,9,0,17,5,23,T,6,Fog,176
2013-11-17,68,61,54,60,54,49,90,77,63,30.03,29.85,29.70,10,9,2,17,6,37,0.41,8,Rain,210
2013-11-18,60,51,41,42,34,25,71,53,35,30.17,30.02,29.86,10,9,0,20,7,29,0.00,1,,282
2013-11-19,46,39,32,27,25,24,70,58,45,30.31,30.26,30.17,10,9,2,10,5,16,0.00,0,,36
2013-11-20,58,44,30,28,25,23,72,51,30,30.32,30.28,30.24,10,10,10,8,3,15,0.00,0,,94
2013-11-21,64,53,41,48,35,23,57,48,38,30.35,30.29,30.23,10,10,2,8,4,14,0.01,4,Rain,141
2013-11-22,59,51,43,57,52,39,100,86,72,30.29,30.21,30.15,10,4,0,15,5,22,0.43,8,Fog-Rain,274
2013-11-23,43,34,24,38,27,11,89,66,43,30.48,30.34,30.27,10,10,9,14,7,26,T,5,,309
2013-11-24,30,24,17,13,6,4,65,50,35,30.66,30.57,30.47,10,10,10,10,4,18,T,1,,357
2013-11-25,44,32,20,31,19,6,92,60,27,30.52,30.33,30.20,10,7,1,8,2,16,0.09,5,Rain-Snow,170
2013-11-26,37,34,31,35,32,29,100,95,89,30.21,30.02,29.82,10,2,0,10,3,16,0.96,8,Fog-Rain-Snow,11
2013-11-27,31,26,20,29,23,15,92,80,68,30.32,29.99,29.84,10,5,1,17,6,26,0.09,8,Snow,314
2013-11-28,36,26,16,21,17,13,91,72,52,30.50,30.41,30.33,10,10,10,8,3,12,0.00,0,,226
2013-11-29,44,35,26,24,21,19,75,59,43,30.62,30.56,30.49,10,10,10,7,2,13,0.00,0,,143
2013-11-30,56,43,29,28,24,21,75,54,32,30.48,30.39,30.25,10,10,10,12,4,18,0.00,0,,180